Airport View

Enter AWOS ICAO identifier for current METAR.

ex. KFNL

KMRN 191840Z AUTO 22007KT 10SM SCT022 SCT035 SCT060 28/19 A2985 RMK AO2 T02750192

19 Jun 2019 18:58

Frequency: 124.175

Phone: 828-757-0788

Other Area AWOS: KHKY - KTNB - KFQD - KIPJ

TAF KHKY 191720Z 1918/2018 21007KT P6SM -SHRA SCT025 BKN040 TEMPO 1918/1922 4SM TSRA BKN025CB FM200200 22004KT P6SM SCT060 BKN200 FM201000 23004KT 6SM BR SCT015 BKN060 FM201500 24011G19KT P6SM -SHRA BKN040 PROB30 2015/2018 VRB15G25KT 3SM TSRA OVC025CB